Terminal Aerodrome Forecast
Issued by NWS

Home | Current Version | Previous Version | Text Only | Print | Product List | Glossary Off
Versions: 1 2 3 4 5 6 7 8 9 10 11 12 13 14 15 16

746
FTUS43 KOAX 111120
TAFCDR
TAF
KCDR 111120Z 1112/1212 26008KT P6SM SCT250
     FM111800 30012G21KT P6SM BKN200
     FM120100 VRB05KT P6SM BKN150=

USA.gov is the U.S. government's official web portal to all federal, state and local government web resources and services.